Jacareacanga, Brazil
Current Conditions -  °F | °C
As of 2:00 PM on Friday 19 Dec 2014 (Local Time) from SBIH Reporting Station
Few Clouds Few Clouds  
Wind Chill: 91°   Ceiling: Unl
Heat Index: 102°   Visibility: 6mi
Dew Point: 75°   Wind: 5mph
Humidity: 59%   Direction: 100°E
Pressure: 29.71"   Gusts: NA
Location:  6.27°S, 57.66°W
Report Text: SBIH 191800Z 10004KT 9999 FEW025 FEW027TCU 33/24 Q1006
Loading
Personal Weather Stations






























Interactive Weather Map New forecast layout! Learn more

10-Day Weather Forecast

Advertisements
Track Severe Weather on mobile